Amunt
Inicio > meteoXarxa
Fes-te'n soci

METEOXARXA

Castellfort
Ubicació
Comarca els Ports
Altitud (msnm) 1181
Posició geogràfica 40° 30' 15.12" N, 00° 11' 20.04" W
Model Instrumentació oficial
Presa de dades
Font de les dades AEMET
Estadístiques. Resum
Data Temperatura (ºC) Humitat (%) Pressió (hPa) Vent (km/h) Precipit. (mm)
Mínima Mitjana Màxima Mínima Mitjana Màxima Mínima Mitjana Màxima Predom. Mitjana Ràfega màxima Total Dies de pluja
Mínima Mitjana Màxima Mínima Mitjana Màxima
Últimes dades diàries
20-02-2017 1,5     6,0     10,5 0,0  
19-02-2017 2,0     5,0     8,0 0,0  
18-02-2017 3,0     7,1     11,1 0,0  
17-02-2017 3,3     7,0     10,7 0,0  
16-02-2017 3,7     6,5     9,4 0,0  
15-02-2017 1,8     6,1     10,4 0,0  
14-02-2017 3,3     6,9     10,5 0,0  
13-02-2017 4,4     6,1     7,8 11,0  
12-02-2017 4,0     5,0     6,1 0,1  
11-02-2017 0,4     2,4     4,4 1,1  
10-02-2017 -0,2     2,6     5,5 0,0  
09-02-2017 -1,3     3,5     8,3 0,0  
08-02-2017 -1,2     0,7     2,6 0,2  
07-02-2017 1,1     5,5     9,9 3,3  
06-02-2017 1,4     4,8     8,2 0,0  
05-02-2017 1,5     5,7     9,8 0,3  
04-02-2017 7,5     9,8     12,1 0,0  
03-02-2017 3,7     6,9     10,2 0,0  
02-02-2017 4,0     6,3     8,6 3,5  
31-01-2017 5,6     8,4     11,2 0,0  
30-01-2017 5,1     8,3     11,5 0,0  
29-01-2017 0,7     4,8     8,9 0,0  
28-01-2017 0,5     2,2     3,9 0,9  
27-01-2017 0,6     3,0     5,4 9,0  
26-01-2017 -2,2     1,0     4,2 0,0  
25-01-2017 -1,4     1,5     4,3 28,5  
24-01-2017 -1,2     1,1     3,5 0,0  
23-01-2017 -1,4     0,3     2,0 0,0  
22-01-2017 -0,9     0,1     1,0 0,7  
21-01-2017          
20-01-2017          
19-01-2017 -7,2     -5,1     -3,0 10,7  
Dades del mes en curs (actualitzades fins l'últim dia disponible)
02/2017 -1,3 2,3 7,5 5,5 2,6 8,6 12,1   19,5  
Últimes dades mensuals
01/2017 -8,8 0,1 6,2 3,2 -3,0 6,2 15,5 50,0 6
12/2016 -0,3 3,5 7,4 6,3 1,5 9,1 15,8 82,7 6
11/2016 0,1 4,8 12,2 7,9 5,3 10,9 19,7 100,1 10
10/2016 3,3 10,0 14,2 13,8 9,2 17,5 23,7 26,7 16
09/2016 7,8 13,0 23,2 17,3 14,1 21,6 32,2 13,3 6
08/2016 7,6 15,1 20,3 20,5 19,8 25,9 29,3 13,3 5
07/2016 6,9 15,6 23,0 20,8 19,1 26,0 31,5 14,7 5
06/2016 6,3 12,3 17,9 17,3 14,9 22,3 28,3 72,3 8
05/2016 -0,5 7,4 14,2 11,9 8,3 16,4 23,2 50,3 7
04/2016 -0,3 4,4 9,1 8,5 6,4 12,6 17,9 35,4 10
03/2016 -2,4 1,9 8,1 5,3 2,1 8,7 18,5 30,8 9
02/2016 -1,5 2,0 5,6 6,3 6,6 10,6 13,9 0,3 1
01/2016 -2,6 3,5 9,1 6,8 1,0 10,1 16,6 7,0 6
Dades de l'any en curs (actualitzades fins l'últim dia disponible)
2017 -8,8 1,0 7,5 4,1 -3,0 7,2 15,5   69,5  
Últimes dades anuals
2012 455,8
2013 -6,0 7,4 12,6 11,4 13,0 15,4 28,3 113,0 441,1 88